Time;durP1;ratioP1;P1;durP2;ratioP2;P2;SDS_P1;SDS_P2;PMS_P1;PMS_P2;Temp;Humidity;BMP_temperature;BMP_pressure;BME280_temperature;BME280_humidity;BME280_pressure;Samples;Min_cycle;Max_cycle;Signal;HPM_P1;HPM_P2
2022/06/05 00:00:57;;;;;;;10.47;9.47;;;20.00;99.90;;;;;;4986954;28;20475;-80
2022/06/05 00:03:35;;;;;;;11.13;10.20;;;20.10;99.90;;;;;;4974364;28;20457;-80
2022/06/05 00:06:08;;;;;;;10.80;9.93;;;20.00;99.90;;;;;;4968147;28;20457;-80
2022/06/05 00:08:46;;;;;;;11.90;9.53;;;20.00;99.90;;;;;;4982038;28;20456;-80
2022/06/05 00:11:13;;;;;;;10.57;9.77;;;20.10;99.90;;;;;;4987211;28;20492;-81
2022/06/05 00:13:44;;;;;;;10.10;9.40;;;20.00;99.90;;;;;;4972729;28;20453;-81
2022/06/05 00:16:10;;;;;;;10.40;9.47;;;20.00;99.90;;;;;;4980793;28;20456;-81
2022/06/05 00:18:42;;;;;;;10.13;9.30;;;19.90;99.90;;;;;;4987135;28;20455;-80
2022/06/05 00:21:09;;;;;;;9.97;9.17;;;20.00;99.90;;;;;;4974996;28;20470;-80
2022/06/05 00:23:36;;;;;;;12.93;11.83;;;19.90;99.90;;;;;;4967096;28;20456;-81
2022/06/05 00:26:11;;;;;;;9.67;8.97;;;19.90;99.90;;;;;;4978044;28;20447;-80
2022/06/05 00:28:40;;;;;;;9.80;9.10;;;19.90;99.90;;;;;;4986273;28;20455;-80
2022/06/05 00:31:16;;;;;;;11.87;11.07;;;19.80;99.90;;;;;;4974724;28;20496;-80
2022/06/05 00:33:44;;;;;;;9.63;8.83;;;19.80;99.90;;;;;;4965842;28;20987;-80
2022/06/05 00:36:25;;;;;;;11.30;10.30;;;19.80;99.90;;;;;;4976540;28;20466;-81
2022/06/05 00:39:03;;;;;;;10.47;9.57;;;19.70;99.90;;;;;;4985047;28;20447;-80
2022/06/05 00:41:54;;;;;;;9.80;8.90;;;19.70;99.90;;;;;;4971720;28;20472;-81
2022/06/05 00:44:28;;;;;;;11.20;10.37;;;19.70;99.90;;;;;;4966494;28;20495;-80
2022/06/05 00:46:55;;;;;;;11.00;9.93;;;19.70;99.90;;;;;;4967056;28;20467;-80
2022/06/05 00:49:30;;;;;;;9.87;9.23;;;19.60;99.90;;;;;;4967928;28;20463;-80
2022/06/05 00:51:57;;;;;;;10.47;9.67;;;19.60;99.90;;;;;;4982933;28;21012;-80
2022/06/05 00:54:23;;;;;;;11.63;10.73;;;19.60;99.90;;;;;;4966535;28;20459;-80
2022/06/05 00:56:50;;;;;;;12.10;11.10;;;19.60;99.90;;;;;;4967863;28;20465;-79
2022/06/05 00:59:20;;;;;;;11.90;10.93;;;19.60;99.90;;;;;;4986789;28;20823;-80
2022/06/05 01:01:48;;;;;;;11.77;10.93;;;19.60;99.90;;;;;;5018964;23;20530;-82
2022/06/05 01:04:16;;;;;;;11.77;10.87;;;19.50;99.90;;;;;;4983744;28;20458;-82
2022/06/05 01:06:44;;;;;;;11.10;10.30;;;19.50;99.90;;;;;;4981325;28;20443;-82
2022/06/05 01:09:11;;;;;;;11.63;10.70;;;19.50;99.90;;;;;;4996503;28;20458;-82
2022/06/05 01:11:47;;;;;;;9.77;9.07;;;19.50;99.90;;;;;;4985001;28;20507;-82
2022/06/05 01:14:22;;;;;;;11.37;10.63;;;19.40;99.90;;;;;;4963875;28;20472;-82
2022/06/05 01:16:56;;;;;;;10.83;9.93;;;19.50;99.90;;;;;;4960925;28;21112;-82
2022/06/05 01:19:40;;;;;;;12.10;11.10;;;19.50;99.90;;;;;;4977428;28;20447;-82
2022/06/05 01:22:38;;;;;;;10.63;9.83;;;19.50;99.90;;;;;;4965038;28;20592;-82
2022/06/05 01:25:34;;;;;;;10.57;9.87;;;19.50;99.90;;;;;;4964680;28;20488;-82
2022/06/05 01:28:08;;;;;;;11.73;10.60;;;19.40;99.90;;;;;;4961253;28;20474;-81
2022/06/05 01:30:45;;;;;;;11.10;10.23;;;19.30;99.90;;;;;;4960333;28;20484;-82
2022/06/05 01:33:18;;;;;;;11.80;10.80;;;19.30;99.90;;;;;;4959909;28;20447;-81
2022/06/05 01:35:57;;;;;;;12.57;11.27;;;19.00;99.90;;;;;;4976098;28;20455;-81
2022/06/05 01:38:34;;;;;;;12.47;11.57;;;18.90;99.90;;;;;;4979846;28;20450;-81
2022/06/05 01:41:08;;;;;;;11.70;10.70;;;18.80;99.90;;;;;;4962013;28;20475;-82
2022/06/05 01:43:37;;;;;;;11.57;10.73;;;18.80;99.90;;;;;;4975663;28;20458;-81
2022/06/05 01:46:09;;;;;;;10.87;9.77;;;18.80;99.90;;;;;;4979451;28;20458;-82
2022/06/05 01:48:40;;;;;;;11.47;10.47;;;18.90;99.90;;;;;;4964221;28;20452;-82
2022/06/05 01:51:11;;;;;;;11.23;10.33;;;18.80;99.90;;;;;;4960088;28;20532;-81
2022/06/05 01:53:42;;;;;;;11.37;10.50;;;18.90;99.90;;;;;;4975149;28;20826;-82
2022/06/05 01:56:16;;;;;;;11.17;10.33;;;18.90;99.90;;;;;;4980294;28;20466;-81
2022/06/05 01:58:45;;;;;;;11.63;10.63;;;18.90;99.90;;;;;;4964904;28;20464;-81
2022/06/05 02:01:17;;;;;;;11.30;10.40;;;19.00;99.90;;;;;;4969741;28;20908;-81
2022/06/05 02:03:48;;;;;;;13.77;12.63;;;18.90;99.90;;;;;;4969913;28;20500;-81
2022/06/05 02:06:18;;;;;;;12.00;11.10;;;18.80;99.90;;;;;;4965691;28;20448;-81
2022/06/05 02:08:49;;;;;;;13.73;12.63;;;18.90;99.90;;;;;;4967568;28;20524;-81
2022/06/05 02:11:21;;;;;;;11.57;10.67;;;18.80;99.90;;;;;;4968313;28;20488;-81
2022/06/05 02:13:51;;;;;;;10.80;10.00;;;18.90;99.90;;;;;;4968078;28;20459;-81
2022/06/05 02:16:18;;;;;;;12.40;11.50;;;18.80;99.90;;;;;;4970258;28;20459;-81
2022/06/05 02:18:45;;;;;;;11.83;10.83;;;18.80;99.90;;;;;;4965821;28;20466;-81
2022/06/05 02:21:12;;;;;;;11.27;10.37;;;18.70;99.90;;;;;;4966649;28;20498;-81
2022/06/05 02:23:40;;;;;;;11.77;10.77;;;18.80;99.90;;;;;;4967743;28;20448;-81
2022/06/05 02:26:09;;;;;;;13.37;12.27;;;18.70;99.90;;;;;;4967907;28;20536;-81
2022/06/05 02:28:37;;;;;;;12.40;11.20;;;18.80;99.90;;;;;;4967680;28;20455;-81
2022/06/05 02:31:13;;;;;;;12.53;11.43;;;18.80;99.90;;;;;;4968925;28;20480;-81
2022/06/05 02:33:49;;;;;;;12.03;11.13;;;18.80;99.90;;;;;;4966991;28;20451;-81
2022/06/05 02:36:22;;;;;;;12.23;11.23;;;18.80;99.90;;;;;;4967308;28;20451;-81
2022/06/05 02:39:00;;;;;;;11.87;10.83;;;18.90;99.90;;;;;;4968130;28;20444;-81
2022/06/05 02:41:32;;;;;;;10.03;9.30;;;18.90;99.90;;;;;;4967029;28;20821;-81
2022/06/05 02:46:54;;;;;;;12.37;11.40;;;18.80;99.90;;;;;;4977095;28;20451;-81
2022/06/05 02:49:27;;;;;;;11.00;10.10;;;18.80;99.90;;;;;;4978541;28;20448;-81
2022/06/05 02:51:59;;;;;;;13.00;11.90;;;18.80;99.90;;;;;;4964053;28;20495;-81
2022/06/05 02:54:27;;;;;;;10.77;9.97;;;19.00;99.90;;;;;;4958472;28;20455;-81
2022/06/05 02:56:55;;;;;;;12.90;11.87;;;19.00;99.90;;;;;;4972085;28;20975;-81
2022/06/05 02:59:24;;;;;;;11.23;10.30;;;18.90;99.90;;;;;;4977941;28;20454;-81
2022/06/05 03:04:35;;;;;;;12.40;11.40;;;18.80;99.90;;;;;;4972556;28;20474;-82
2022/06/05 03:07:02;;;;;;;12.47;11.10;;;18.60;99.90;;;;;;4978198;28;20845;-81
2022/06/05 03:09:29;;;;;;;12.07;11.17;;;18.70;99.90;;;;;;4965581;28;20827;-81
2022/06/05 03:11:56;;;;;;;12.87;11.67;;;18.60;99.90;;;;;;4958593;28;20491;-81
2022/06/05 03:14:24;;;;;;;12.63;11.53;;;18.60;99.90;;;;;;4969098;28;20455;-81
2022/06/05 03:16:52;;;;;;;11.73;10.83;;;18.60;99.90;;;;;;4978458;28;20454;-81
2022/06/05 03:19:19;;;;;;;12.70;11.70;;;18.60;99.90;;;;;;4968922;28;20471;-81
2022/06/05 03:21:45;;;;;;;10.47;9.67;;;18.50;99.90;;;;;;4961747;28;20478;-81
2022/06/05 03:24:14;;;;;;;12.23;11.23;;;18.40;99.90;;;;;;4973540;28;20468;-81
2022/06/05 03:26:40;;;;;;;12.43;11.33;;;18.50;99.90;;;;;;4962344;28;20457;-81
2022/06/05 03:29:07;;;;;;;11.00;10.20;;;18.60;99.90;;;;;;4962992;28;20456;-81
2022/06/05 03:31:36;;;;;;;11.60;10.80;;;18.70;99.90;;;;;;4968000;28;20478;-81
2022/06/05 03:34:03;;;;;;;10.27;9.47;;;18.80;99.90;;;;;;4978183;28;20815;-81
2022/06/05 03:36:30;;;;;;;10.53;9.73;;;18.90;99.90;;;;;;4963747;28;20460;-81
2022/06/05 03:38:57;;;;;;;10.80;10.00;;;18.90;99.90;;;;;;4966346;28;20824;-81
2022/06/05 03:41:24;;;;;;;11.03;10.23;;;19.00;99.90;;;;;;4982014;28;20486;-81
2022/06/05 03:43:54;;;;;;;10.70;9.80;;;19.00;99.90;;;;;;4980138;28;20448;-81
2022/06/05 03:46:20;;;;;;;9.90;9.10;;;19.20;99.90;;;;;;4962536;28;20460;-81
2022/06/05 03:48:48;;;;;;;11.17;10.43;;;19.10;99.90;;;;;;4963612;28;20467;-81
2022/06/05 03:51:19;;;;;;;10.23;9.27;;;19.20;99.90;;;;;;4981959;28;21016;-81
2022/06/05 03:53:47;;;;;;;12.07;10.87;;;19.10;99.90;;;;;;4981759;28;20483;-81
2022/06/05 03:56:15;;;;;;;10.97;10.17;;;19.00;99.90;;;;;;4963835;28;21025;-81
2022/06/05 03:58:42;;;;;;;11.67;10.60;;;18.80;99.90;;;;;;4963156;28;20455;-81
2022/06/05 04:01:09;;;;;;;12.77;11.57;;;18.60;99.90;;;;;;4980822;28;20489;-81
2022/06/05 04:03:36;;;;;;;12.30;11.33;;;18.50;99.90;;;;;;4982913;28;20454;-81
2022/06/05 04:06:07;;;;;;;12.47;11.40;;;18.40;99.90;;;;;;4964910;28;20467;-81
2022/06/05 04:08:34;;;;;;;12.30;11.30;;;18.20;99.90;;;;;;4962780;28;20462;-81
2022/06/05 04:11:03;;;;;;;12.90;11.60;;;18.20;99.90;;;;;;4976931;28;20533;-81
2022/06/05 04:13:30;;;;;;;11.77;10.80;;;18.10;99.90;;;;;;4964210;28;20491;-81
2022/06/05 04:15:57;;;;;;;12.73;11.63;;;18.10;99.90;;;;;;4960681;28;20455;-80
2022/06/05 04:18:24;;;;;;;14.13;12.97;;;18.20;99.90;;;;;;4976830;28;20455;-80
2022/06/05 04:20:50;;;;;;;12.90;11.90;;;18.40;99.90;;;;;;4980891;28;20471;-81
2022/06/05 04:23:18;;;;;;;13.67;12.47;;;18.40;99.90;;;;;;4967522;28;20460;-81
2022/06/05 04:25:46;;;;;;;13.87;12.67;;;18.40;99.90;;;;;;4961421;28;20981;-81
2022/06/05 04:28:12;;;;;;;12.70;11.80;;;18.40;99.90;;;;;;4973396;28;20470;-81
2022/06/05 04:30:41;;;;;;;12.60;11.80;;;18.40;99.90;;;;;;4980849;28;20479;-81
2022/06/05 04:33:08;;;;;;;13.07;11.87;;;18.40;99.90;;;;;;4969040;28;20485;-81
2022/06/05 04:35:36;;;;;;;14.03;12.73;;;18.30;99.90;;;;;;4961749;28;20457;-81
2022/06/05 04:38:04;;;;;;;13.83;12.63;;;18.20;99.90;;;;;;4971327;28;20521;-81
2022/06/05 04:40:32;;;;;;;14.60;13.30;;;18.10;99.90;;;;;;4980006;28;20475;-81
2022/06/05 04:42:59;;;;;;;14.03;12.90;;;18.00;99.90;;;;;;4971233;28;20460;-81
2022/06/05 04:45:25;;;;;;;14.27;13.17;;;17.90;99.90;;;;;;4961971;28;20467;-81
2022/06/05 04:47:52;;;;;;;15.80;14.50;;;17.90;99.90;;;;;;4968309;28;20462;-81
2022/06/05 04:50:19;;;;;;;14.60;13.40;;;17.90;99.90;;;;;;4980555;28;20485;-81
2022/06/05 04:52:46;;;;;;;17.47;15.80;;;17.70;99.90;;;;;;4973472;28;20491;-81
2022/06/05 04:55:13;;;;;;;16.50;15.10;;;17.70;99.90;;;;;;4965255;28;20458;-81
2022/06/05 04:57:43;;;;;;;16.67;15.17;;;17.60;99.90;;;;;;4979714;28;20462;-80
2022/06/05 05:00:11;;;;;;;16.80;15.20;;;17.40;99.90;;;;;;4976313;28;20466;-81
2022/06/05 05:02:38;;;;;;;18.53;16.90;;;17.20;99.90;;;;;;4958178;28;20432;-83
2022/06/05 05:05:06;;;;;;;19.83;17.73;;;17.20;99.90;;;;;;4960260;28;20812;-82
2022/06/05 05:07:32;;;;;;;17.27;15.77;;;17.00;99.90;;;;;;4957541;28;20464;-83
2022/06/05 05:09:59;;;;;;;19.40;17.80;;;17.00;99.90;;;;;;4957385;28;21003;-82
2022/06/05 05:12:27;;;;;;;18.73;17.23;;;17.00;99.90;;;;;;4958075;28;20493;-82
2022/06/05 05:14:55;;;;;;;23.30;18.83;;;16.90;99.90;;;;;;4959399;28;20963;-83
2022/06/05 05:17:22;;;;;;;20.70;18.93;;;16.90;99.90;;;;;;4960472;28;20463;-83
2022/06/05 05:19:49;;;;;;;21.20;19.40;;;16.90;99.90;;;;;;4970969;28;20832;-85
2022/06/05 05:22:16;;;;;;;22.20;19.90;;;16.90;99.90;;;;;;4977589;28;20497;-83
2022/06/05 05:24:43;;;;;;;25.80;23.30;;;16.90;99.90;;;;;;4974036;28;20526;-82
2022/06/05 05:27:10;;;;;;;24.73;22.33;;;16.80;99.90;;;;;;4980731;28;20486;-83
2022/06/05 05:29:40;;;;;;;26.80;24.07;;;16.80;99.90;;;;;;4981103;28;20462;-83
2022/06/05 05:32:10;;;;;;;25.50;22.90;;;16.80;99.90;;;;;;4978883;28;20477;-83
2022/06/05 05:34:38;;;;;;;26.53;24.03;;;16.80;99.90;;;;;;4968857;28;20459;-81
2022/06/05 05:37:06;;;;;;;25.40;23.10;;;16.80;99.90;;;;;;4977740;28;20466;-82
2022/06/05 05:42:17;;;;;;;25.37;22.70;;;17.20;99.90;;;;;;4979128;28;20472;-82
2022/06/05 05:44:46;;;;;;;29.30;25.03;;;17.30;99.90;;;;;;4961717;28;20451;-82
2022/06/05 05:54:28;;;;;;;24.57;22.10;;;17.40;99.90;;;;;;4946189;29;20500;-83
2022/06/05 06:00:39;;;;;;;23.00;20.70;;;17.10;99.90;;;;;;4917594;29;20476;-83
2022/06/05 06:03:08;;;;;;;23.30;21.10;;;17.10;99.90;;;;;;4934342;29;20463;-83
2022/06/05 06:05:34;;;;;;;25.33;22.83;;;17.10;99.90;;;;;;4955476;28;20460;-83
2022/06/05 06:08:01;;;;;;;23.13;20.93;;;17.20;99.90;;;;;;4971936;28;20458;-83
2022/06/05 06:10:28;;;;;;;22.97;20.63;;;17.20;99.90;;;;;;4959313;28;20942;-84
2022/06/05 06:12:55;;;;;;;22.00;19.70;;;17.20;99.90;;;;;;4960098;28;20521;-83
2022/06/05 06:15:21;;;;;;;22.00;19.80;;;17.20;99.90;;;;;;4960442;28;20469;-83
2022/06/05 06:17:48;;;;;;;22.83;20.17;;;17.10;99.90;;;;;;4960074;28;20469;-83
2022/06/05 06:20:17;;;;;;;19.10;17.23;;;17.10;99.90;;;;;;4960046;28;20509;-83
2022/06/05 06:22:44;;;;;;;17.53;15.40;;;17.00;99.90;;;;;;4971905;28;20457;-83
2022/06/05 06:25:11;;;;;;;17.43;15.60;;;17.00;99.90;;;;;;4978612;28;20461;-83
2022/06/05 06:27:38;;;;;;;15.00;13.60;;;17.00;99.90;;;;;;4978172;28;20500;-84
2022/06/05 06:30:07;;;;;;;15.30;13.83;;;17.00;99.90;;;;;;4977046;28;20453;-83
2022/06/05 06:32:35;;;;;;;13.80;12.40;;;17.00;99.90;;;;;;4976918;28;20470;-83
2022/06/05 06:35:02;;;;;;;11.67;10.57;;;17.00;99.90;;;;;;4977431;28;20561;-83
2022/06/05 06:37:30;;;;;;;11.00;9.50;;;17.00;99.90;;;;;;4977692;28;20558;-83
2022/06/05 06:39:57;;;;;;;7.30;6.60;;;17.10;99.90;;;;;;4977863;28;20480;-83
2022/06/05 06:42:26;;;;;;;6.17;5.57;;;17.10;99.90;;;;;;4975302;28;20459;-83
2022/06/05 06:44:54;;;;;;;7.23;6.53;;;17.00;99.90;;;;;;4957937;28;20465;-83
2022/06/05 06:47:20;;;;;;;8.00;7.40;;;17.00;99.90;;;;;;4958664;28;20549;-84
2022/06/05 06:49:47;;;;;;;9.07;8.27;;;17.10;99.90;;;;;;4958569;28;20462;-83
2022/06/05 06:52:15;;;;;;;11.87;10.77;;;17.10;99.90;;;;;;4961717;28;20482;-82
2022/06/05 06:54:45;;;;;;;10.70;9.20;;;17.10;99.90;;;;;;4958888;28;20491;-83
2022/06/05 06:57:13;;;;;;;10.13;9.23;;;17.20;99.90;;;;;;4962945;28;20461;-83
2022/06/05 06:59:41;;;;;;;12.40;11.13;;;17.20;99.90;;;;;;4978019;28;20459;-83
2022/06/05 07:02:08;;;;;;;10.90;10.00;;;17.20;99.90;;;;;;4984994;23;20511;-81
2022/06/05 07:04:34;;;;;;;8.53;7.73;;;17.20;99.90;;;;;;4966862;28;20813;-81
2022/06/05 07:07:01;;;;;;;9.70;8.77;;;17.20;99.90;;;;;;4966370;29;20454;-81
2022/06/05 07:09:28;;;;;;;9.67;8.87;;;17.30;99.90;;;;;;4966561;29;20494;-81
2022/06/05 07:11:56;;;;;;;9.40;7.47;;;17.30;99.90;;;;;;4968170;28;20471;-81
2022/06/05 07:14:23;;;;;;;8.40;7.60;;;17.30;99.90;;;;;;4966376;28;20491;-81
2022/06/05 07:16:49;;;;;;;9.90;8.90;;;17.00;99.90;;;;;;4967168;29;20456;-81
2022/06/05 07:19:18;;;;;;;9.73;8.93;;;16.80;99.90;;;;;;4965390;28;20454;-81
2022/06/05 07:21:44;;;;;;;8.47;7.67;;;16.80;99.90;;;;;;4972301;28;20479;-80
2022/06/05 07:24:11;;;;;;;9.30;8.40;;;16.80;99.90;;;;;;4968083;29;20450;-80
2022/06/05 07:26:38;;;;;;;8.50;7.80;;;16.90;99.90;;;;;;4967519;28;20462;-80
2022/06/05 07:29:06;;;;;;;9.83;8.80;;;17.00;99.90;;;;;;4966152;28;20813;-82
2022/06/05 07:31:33;;;;;;;8.07;7.37;;;17.20;99.90;;;;;;4966559;28;20484;-80
2022/06/05 07:34:00;;;;;;;8.90;8.10;;;17.30;99.90;;;;;;4965578;29;20492;-80
2022/06/05 07:36:28;;;;;;;9.87;8.57;;;17.30;99.90;;;;;;4965080;29;20475;-80
2022/06/05 07:38:57;;;;;;;8.13;7.27;;;17.40;99.90;;;;;;4964279;28;20486;-80
2022/06/05 07:41:27;;;;;;;9.13;6.30;;;17.50;99.90;;;;;;4964213;28;20507;-80
2022/06/05 07:43:54;;;;;;;7.47;6.97;;;17.60;99.90;;;;;;4965068;28;20450;-80
2022/06/05 07:46:22;;;;;;;8.30;7.50;;;17.60;99.90;;;;;;4964444;28;20487;-81
2022/06/05 07:48:49;;;;;;;7.23;6.20;;;17.70;99.90;;;;;;4964698;29;20468;-81
2022/06/05 07:56:47;;;;;;;6.83;6.23;;;17.70;99.90;;;;;;4964781;29;20882;-80
2022/06/05 07:59:14;;;;;;;6.30;5.80;;;17.70;99.90;;;;;;4963777;29;20984;-81
2022/06/05 08:01:42;;;;;;;7.63;5.20;;;17.60;99.90;;;;;;4963472;28;20483;-81
2022/06/05 08:04:09;;;;;;;5.50;4.80;;;17.70;99.90;;;;;;4963499;29;20454;-81
2022/06/05 08:06:36;;;;;;;5.97;5.47;;;17.80;99.90;;;;;;4962704;28;20448;-81
2022/06/05 08:09:03;;;;;;;6.10;5.50;;;17.90;99.90;;;;;;4966236;29;20456;-82
2022/06/05 08:11:31;;;;;;;5.03;4.50;;;18.00;99.90;;;;;;4968923;28;20479;-82
2022/06/05 08:13:58;;;;;;;5.13;4.70;;;18.10;99.90;;;;;;4966268;29;20523;-80
2022/06/05 08:16:25;;;;;;;5.20;4.83;;;18.20;99.90;;;;;;4965222;29;20460;-81
2022/06/05 08:18:54;;;;;;;5.10;4.70;;;18.30;99.90;;;;;;4965821;28;20483;-82
2022/06/05 08:21:21;;;;;;;6.80;6.30;;;18.50;99.90;;;;;;4964176;28;20515;-81
2022/06/05 08:23:48;;;;;;;5.83;5.23;;;18.70;99.90;;;;;;4964049;28;20455;-82
2022/06/05 08:26:15;;;;;;;5.87;5.37;;;18.90;99.90;;;;;;4962471;28;20463;-81
2022/06/05 08:28:42;;;;;;;5.77;5.27;;;19.20;99.90;;;;;;4962136;29;20460;-81
2022/06/05 08:31:09;;;;;;;5.00;4.60;;;19.50;99.90;;;;;;4962701;28;20478;-81
2022/06/05 08:33:36;;;;;;;5.00;4.50;;;19.70;99.90;;;;;;4963620;28;20491;-82
2022/06/05 08:36:04;;;;;;;6.30;5.70;;;20.00;99.90;;;;;;4962518;28;20460;-82
2022/06/05 08:41:33;;;;;;;3.90;3.10;;;20.30;99.90;;;;;;4963025;28;20506;-82
2022/06/05 08:44:10;;;;;;;3.23;3.03;;;20.40;99.90;;;;;;4961943;29;20460;-82
2022/06/05 08:46:42;;;;;;;4.80;3.37;;;20.50;99.90;;;;;;4961407;28;20460;-81
2022/06/05 08:49:11;;;;;;;3.97;3.47;;;20.50;99.90;;;;;;4958946;28;20453;-85
2022/06/05 08:51:52;;;;;;;3.83;3.40;;;20.60;99.90;;;;;;4960335;28;20481;-85
2022/06/05 08:54:40;;;;;;;2.83;2.63;;;20.70;99.90;;;;;;4961604;28;20508;-85
2022/06/05 09:00:29;;;;;;;4.10;2.40;;;20.60;99.90;;;;;;4968571;28;20428;-86
2022/06/05 09:24:41;;;;;;;2.77;2.63;;;21.20;99.90;;;;;;4954694;29;20449;-86
2022/06/05 09:27:20;;;;;;;2.10;2.00;;;21.30;99.90;;;;;;4955657;29;20479;-85
2022/06/05 09:29:54;;;;;;;2.30;1.60;;;21.40;99.90;;;;;;4958474;29;20467;-84
2022/06/05 09:32:41;;;;;;;2.73;2.53;;;21.40;99.90;;;;;;4962659;28;20483;-85
2022/06/05 09:35:19;;;;;;;2.70;1.83;;;21.40;99.90;;;;;;4963237;29;20508;-84
2022/06/05 09:37:51;;;;;;;1.70;1.60;;;21.50;99.90;;;;;;4960200;29;20524;-83
2022/06/05 09:40:24;;;;;;;2.20;2.03;;;21.60;99.90;;;;;;4962786;28;20439;-84
2022/06/05 09:43:13;;;;;;;4.67;2.57;;;21.60;99.90;;;;;;4963741;28;20479;-85
2022/06/05 09:45:58;;;;;;;3.53;2.27;;;21.70;99.90;;;;;;4953620;28;20441;-84
2022/06/05 09:48:31;;;;;;;2.90;2.00;;;21.90;99.90;;;;;;4945152;29;20451;-83
2022/06/05 09:50:58;;;;;;;2.13;2.03;;;21.90;99.90;;;;;;4951701;29;20478;-85
2022/06/05 09:53:29;;;;;;;2.50;1.93;;;22.20;99.90;;;;;;4944578;29;20464;-84
2022/06/05 09:56:07;;;;;;;3.80;1.80;;;22.30;99.90;;;;;;4944100;29;20455;-84
2022/06/05 09:58:48;;;;;;;1.73;1.63;;;22.40;99.90;;;;;;4956330;29;20451;-84
2022/06/05 10:01:24;;;;;;;3.20;1.97;;;22.50;99.90;;;;;;4963372;28;20485;-84
2022/06/05 10:03:52;;;;;;;2.63;1.80;;;22.60;99.90;;;;;;4963269;28;20449;-82
2022/06/05 10:06:25;;;;;;;1.80;1.53;;;22.70;99.90;;;;;;4962865;28;20464;-83
2022/06/05 10:08:57;;;;;;;2.67;1.83;;;22.80;99.90;;;;;;4962108;28;20805;-83
2022/06/05 10:11:32;;;;;;;1.70;1.60;;;22.90;99.90;;;;;;4962315;28;20548;-84
2022/06/05 10:14:05;;;;;;;1.70;1.60;;;23.10;99.90;;;;;;4963343;28;20527;-82
2022/06/05 10:16:39;;;;;;;1.70;1.60;;;23.20;99.90;;;;;;4963091;29;20441;-83
2022/06/05 10:19:26;;;;;;;2.30;2.00;;;23.30;99.90;;;;;;4964006;29;20495;-82
2022/06/05 10:21:58;;;;;;;2.23;2.13;;;23.30;99.90;;;;;;4962923;28;20476;-82
2022/06/05 10:24:37;;;;;;;1.77;1.67;;;23.10;99.90;;;;;;4963485;28;20460;-83
2022/06/05 10:27:06;;;;;;;2.40;1.93;;;23.00;99.90;;;;;;4963137;29;20511;-80
2022/06/05 10:29:38;;;;;;;2.70;2.47;;;22.80;99.90;;;;;;4962558;28;20470;-81
2022/06/05 10:32:12;;;;;;;4.57;3.23;;;22.70;99.90;;;;;;4957408;28;20467;-81
2022/06/05 10:34:48;;;;;;;3.93;3.53;;;22.40;99.90;;;;;;4959677;28;20586;-81
2022/06/05 10:37:22;;;;;;;5.43;4.30;;;22.00;99.90;;;;;;4958712;29;20448;-82
2022/06/05 10:40:00;;;;;;;3.63;3.33;;;21.80;99.90;;;;;;4958054;29;20452;-81
2022/06/05 10:42:39;;;;;;;4.93;4.53;;;21.50;99.90;;;;;;4953837;29;20477;-80
2022/06/05 10:45:32;;;;;;;4.80;4.40;;;21.10;99.90;;;;;;4952501;29;20446;-81
2022/06/05 10:48:19;;;;;;;5.80;5.33;;;20.70;99.90;;;;;;4955896;29;21168;-82
2022/06/05 10:50:50;;;;;;;6.30;5.80;;;20.40;99.90;;;;;;4955096;28;20492;-82
2022/06/05 10:53:22;;;;;;;7.63;7.00;;;20.30;99.90;;;;;;4955572;29;20457;-83
2022/06/05 10:56:24;;;;;;;7.67;6.80;;;20.10;99.90;;;;;;4956185;29;20476;-82
2022/06/05 10:58:58;;;;;;;7.20;6.60;;;20.00;99.90;;;;;;4944429;28;20456;-82
2022/06/05 11:01:36;;;;;;;7.60;6.13;;;19.90;99.90;;;;;;4961804;29;20490;-83
2022/06/05 11:04:18;;;;;;;7.97;7.17;;;19.90;99.90;;;;;;4960109;29;20853;-82
2022/06/05 11:06:53;;;;;;;9.00;7.23;;;19.80;99.90;;;;;;4969239;28;20808;-82
2022/06/05 11:09:38;;;;;;;6.57;5.93;;;19.80;99.90;;;;;;4959833;28;20470;-83
2022/06/05 11:15:06;;;;;;;9.03;8.13;;;19.80;99.90;;;;;;4952205;29;20488;-82
2022/06/05 11:17:41;;;;;;;7.60;7.00;;;19.80;99.90;;;;;;4965332;28;20459;-82
2022/06/05 11:23:02;;;;;;;5.33;4.83;;;19.70;99.90;;;;;;4966181;28;20456;-84
2022/06/05 11:25:32;;;;;;;6.90;5.07;;;19.60;99.90;;;;;;4964496;28;20452;-80
2022/06/05 11:28:21;;;;;;;4.90;4.50;;;19.60;99.90;;;;;;4970861;29;20524;-79
2022/06/05 11:31:10;;;;;;;4.17;3.83;;;19.50;99.90;;;;;;4963685;29;20468;-83
2022/06/05 11:33:46;;;;;;;5.07;4.60;;;19.50;99.90;;;;;;4965309;29;20444;-82
2022/06/05 11:36:20;;;;;;;5.47;4.97;;;19.60;99.90;;;;;;4964172;29;20810;-82
2022/06/05 11:39:03;;;;;;;4.43;4.00;;;19.70;99.90;;;;;;4964932;28;20452;-82
2022/06/05 11:41:37;;;;;;;4.17;3.87;;;19.70;99.90;;;;;;4962745;28;20486;-82
2022/06/05 11:44:32;;;;;;;4.57;3.90;;;20.10;99.90;;;;;;4964500;29;20459;-82
2022/06/05 11:47:42;;;;;;;4.30;3.87;;;20.50;99.90;;;;;;4962414;29;20454;-85
2022/06/05 11:50:31;;;;;;;4.93;3.50;;;21.40;99.90;;;;;;4969315;29;20460;-86
2022/06/05 11:53:09;;;;;;;3.60;3.30;;;22.10;99.90;;;;;;4954115;29;20462;-86
2022/06/05 11:55:41;;;;;;;3.30;3.00;;;22.80;99.90;;;;;;4953059;29;20998;-84
2022/06/05 11:58:13;;;;;;;3.80;3.50;;;23.50;99.90;;;;;;4966440;28;20457;-84
2022/06/05 12:00:45;;;;;;;3.33;3.07;;;24.20;99.90;;;;;;4961955;28;20491;-80
2022/06/05 12:03:19;;;;;;;3.93;2.90;;;24.80;99.90;;;;;;4964363;28;20481;-82
2022/06/05 12:05:55;;;;;;;3.17;2.90;;;25.10;99.90;;;;;;4964055;28;20446;-82
2022/06/05 12:08:25;;;;;;;3.60;3.30;;;25.70;99.90;;;;;;4963988;28;20590;-83
2022/06/05 12:10:58;;;;;;;3.20;2.90;;;26.10;99.90;;;;;;4963496;28;20470;-83
2022/06/05 12:13:47;;;;;;;2.90;2.60;;;26.10;99.90;;;;;;4964887;28;20987;-82
2022/06/05 12:16:21;;;;;;;6.43;3.40;;;26.00;99.90;;;;;;4967325;28;20499;-83
2022/06/05 12:18:55;;;;;;;3.40;2.40;;;25.90;99.90;;;;;;4966309;28;20458;-83
2022/06/05 12:21:27;;;;;;;4.27;2.83;;;25.70;99.90;;;;;;4951115;29;20483;-83
2022/06/05 12:24:00;;;;;;;3.33;3.13;;;25.50;99.90;;;;;;4954642;28;20796;-83
2022/06/05 12:26:39;;;;;;;4.00;2.83;;;25.20;99.90;;;;;;4960064;29;20462;-84
2022/06/05 12:29:14;;;;;;;3.30;3.07;;;24.90;99.90;;;;;;4952661;29;20540;-83
2022/06/05 12:31:49;;;;;;;3.10;2.90;;;24.90;99.90;;;;;;4968438;29;20475;-83
2022/06/05 12:34:20;;;;;;;2.83;2.63;;;24.50;99.90;;;;;;4962788;28;20479;-84
2022/06/05 12:36:58;;;;;;;2.60;2.40;;;24.40;99.90;;;;;;4965692;28;20445;-82
2022/06/05 12:39:28;;;;;;;4.10;3.20;;;24.20;99.90;;;;;;4960897;29;20931;-82
2022/06/05 12:42:08;;;;;;;3.10;2.83;;;24.40;99.90;;;;;;4962084;28;20783;-84
2022/06/05 12:44:41;;;;;;;4.80;3.10;;;24.90;99.90;;;;;;4963370;28;20934;-84
2022/06/05 12:47:16;;;;;;;2.90;2.70;;;25.40;99.90;;;;;;4963624;28;20467;-84
2022/06/05 12:49:58;;;;;;;2.93;2.60;;;26.00;99.90;;;;;;4963496;28;20571;-84
2022/06/05 12:52:35;;;;;;;3.03;2.60;;;26.60;99.90;;;;;;4962749;28;20491;-84
2022/06/05 12:55:10;;;;;;;4.67;2.70;;;26.80;99.90;;;;;;4963506;28;20566;-85
2022/06/05 12:57:40;;;;;;;2.50;2.20;;;26.70;99.90;;;;;;4963353;28;20486;-84
2022/06/05 13:00:17;;;;;;;4.50;2.90;;;26.50;99.40;;;;;;4963834;28;20466;-84
2022/06/05 13:02:50;;;;;;;3.20;2.90;;;26.00;99.60;;;;;;4963863;28;20521;-83
2022/06/05 13:05:26;;;;;;;5.27;2.97;;;25.70;99.90;;;;;;4962945;28;20972;-83
2022/06/05 13:07:59;;;;;;;2.83;2.60;;;25.70;99.90;;;;;;4970104;28;20465;-83
2022/06/05 13:10:33;;;;;;;3.43;3.13;;;25.50;99.90;;;;;;4962537;28;20459;-83
2022/06/05 13:13:10;;;;;;;3.20;2.30;;;25.60;99.90;;;;;;4963269;28;20466;-83
2022/06/05 13:15:45;;;;;;;2.30;2.10;;;25.60;99.90;;;;;;4962858;28;20489;-83
2022/06/05 13:18:22;;;;;;;3.00;2.47;;;25.40;99.90;;;;;;4963466;28;20452;-83
2022/06/05 13:21:01;;;;;;;3.13;2.60;;;24.80;99.90;;;;;;4964029;28;20926;-84
2022/06/05 13:23:33;;;;;;;2.70;2.50;;;24.70;99.90;;;;;;4963396;28;20437;-84
2022/06/05 13:26:11;;;;;;;2.70;2.50;;;24.80;99.90;;;;;;4963357;28;20978;-83
2022/06/05 13:28:44;;;;;;;2.90;2.57;;;24.60;99.90;;;;;;4963997;28;20570;-84
2022/06/05 13:31:26;;;;;;;3.43;2.80;;;24.70;99.90;;;;;;4962726;28;20473;-84
2022/06/05 13:33:57;;;;;;;3.43;3.13;;;24.80;99.90;;;;;;4964099;28;20832;-84
2022/06/05 13:36:30;;;;;;;2.73;2.43;;;25.10;99.90;;;;;;4963832;28;20477;-84
2022/06/05 13:39:02;;;;;;;3.20;2.90;;;25.50;99.90;;;;;;4963036;28;20462;-84
2022/06/05 13:41:39;;;;;;;3.50;3.20;;;25.80;99.90;;;;;;4963712;28;20474;-83
2022/06/05 13:44:16;;;;;;;4.10;3.80;;;25.80;99.40;;;;;;4963846;28;20449;-84
2022/06/05 13:46:51;;;;;;;3.70;2.83;;;25.40;99.90;;;;;;4963222;28;20441;-84
2022/06/05 13:49:32;;;;;;;3.93;3.60;;;25.20;99.90;;;;;;4963848;28;20936;-84
2022/06/05 13:52:09;;;;;;;3.13;2.93;;;25.00;99.90;;;;;;4963152;28;20481;-83
2022/06/05 13:54:40;;;;;;;2.60;2.40;;;25.20;99.90;;;;;;4963348;28;20924;-83
2022/06/05 13:57:13;;;;;;;3.10;2.50;;;25.20;99.90;;;;;;4970783;28;20449;-83
2022/06/05 13:59:44;;;;;;;4.07;2.70;;;25.00;99.90;;;;;;4964729;28;20449;-83